createdAt,value
2023-01-04T00:00:25.376Z,96725
2023-01-04T00:01:27.449Z,96723.4
2023-01-04T00:02:30.261Z,96727.3
2023-01-04T00:03:33.672Z,96727
2023-01-04T00:04:36.618Z,96725.4
2023-01-04T00:05:39.198Z,96720.3
2023-01-04T00:06:41.766Z,96724.1
2023-01-04T00:07:44.277Z,96717.9
2023-01-04T00:08:46.262Z,96719.3
2023-01-04T00:09:48.516Z,96713.8
2023-01-04T00:10:50.775Z,96717.5
2023-01-04T00:11:53.341Z,96710.2
2023-01-04T00:12:55.877Z,96713.2
2023-01-04T00:13:58.419Z,96713.5
2023-01-04T00:15:01.011Z,96713.3
2023-01-04T00:17:08.545Z,96712.1
2023-01-04T00:18:10.798Z,96712.7
2023-01-04T00:19:13.045Z,96711.8
2023-01-04T00:20:15.601Z,96712.4
2023-01-04T00:21:18.229Z,96713.6
2023-01-04T00:22:20.830Z,96710.8
2023-01-04T00:23:23.371Z,96713.5
2023-01-04T00:24:25.866Z,96710.9
2023-01-04T00:25:28.130Z,96710.8
2023-01-04T00:26:30.407Z,96711.6
2023-01-04T00:27:32.664Z,96712.9
2023-01-04T00:28:34.634Z,96712.1
2023-01-04T00:29:37.158Z,96711.9
2023-01-04T00:30:39.650Z,96715.3
2023-01-04T00:31:42.427Z,96713.4
2023-01-04T00:32:44.809Z,96712.4
2023-01-04T00:33:47.332Z,96713.1
2023-01-04T00:34:49.849Z,96711.3
2023-01-04T00:35:52.363Z,96714.9
2023-01-04T00:36:54.895Z,96718.2
2023-01-04T00:37:57.481Z,96715.3
2023-01-04T00:38:59.996Z,96717.7
2023-01-04T00:40:02.593Z,96716.4
2023-01-04T00:41:04.822Z,96708.5
2023-01-04T00:42:07.357Z,96711.2
2023-01-04T00:43:09.625Z,96709.7
2023-01-04T00:44:11.679Z,96707.4
2023-01-04T00:45:13.899Z,96704.7
2023-01-04T00:46:16.710Z,96709.1
2023-01-04T00:47:19.012Z,96709.8
2023-01-04T00:48:20.953Z,96706.7
2023-01-04T00:49:23.515Z,96705.2
2023-01-04T00:50:25.787Z,96704.9
2023-01-04T00:51:28.422Z,96703.8
2023-01-04T00:52:31.019Z,96702.2
2023-01-04T00:53:33.630Z,96706.2
2023-01-04T00:54:36.226Z,96700.6
2023-01-04T00:55:38.723Z,96700.4
2023-01-04T00:56:41.256Z,96702.3
2023-01-04T00:57:43.470Z,96696.9
2023-01-04T00:58:46.004Z,96691.8
2023-01-04T00:59:48.527Z,96691.1
2023-01-04T01:00:51.084Z,96688.1
2023-01-04T01:01:54.519Z,96688.8
2023-01-04T01:02:58.669Z,96687.8
2023-01-04T01:04:01.569Z,96684.2
2023-01-04T01:05:04.329Z,96685.3
2023-01-04T01:06:06.561Z,96686.5
2023-01-04T01:07:08.804Z,96689.3
2023-01-04T01:08:11.025Z,96691.2
2023-01-04T01:09:13.635Z,96686.7
2023-01-04T01:10:16.187Z,96688.6
2023-01-04T01:11:18.145Z,96687.2
2023-01-04T01:12:20.400Z,96698.2
2023-01-04T01:13:22.909Z,96697.6
2023-01-04T01:14:25.652Z,96696.9
2023-01-04T01:15:28.341Z,96691.2
2023-01-04T01:17:35.957Z,96694.1
2023-01-04T01:18:38.192Z,96694.6
2023-01-04T01:19:40.458Z,96689.6
2023-01-04T01:20:42.973Z,96689.8
2023-01-04T01:21:45.244Z,96695.5
2023-01-04T01:22:47.784Z,96695.4
2023-01-04T01:23:50.307Z,96698.1
2023-01-04T01:24:52.909Z,96698.6
2023-01-04T01:25:55.462Z,96700.8
2023-01-04T01:26:58.035Z,96699.3
2023-01-04T01:28:00.610Z,96696.3
2023-01-04T01:29:02.612Z,96694.4
2023-01-04T01:30:05.315Z,96692.9
2023-01-04T01:32:12.541Z,96700.4
2023-01-04T01:33:14.766Z,96701.4
2023-01-04T01:34:17.286Z,96695.7
2023-01-04T01:35:19.824Z,96696.4
2023-01-04T01:36:22.357Z,96697.4
2023-01-04T01:37:24.876Z,96699.4
2023-01-04T01:38:27.101Z,96707.8
2023-01-04T01:39:29.637Z,96711.6
2023-01-04T01:40:32.252Z,96717.8
2023-01-04T01:41:34.503Z,96719.6
2023-01-04T01:42:36.821Z,96720.5
2023-01-04T01:43:39.346Z,96719
2023-01-04T01:44:41.286Z,96719.7
2023-01-04T01:45:43.526Z,96717.7
2023-01-04T01:46:45.795Z,96714.3
2023-01-04T01:47:48.435Z,96716.6
2023-01-04T01:48:50.944Z,96714.5
2023-01-04T01:49:53.445Z,96712.5
2023-01-04T01:50:55.669Z,96710
2023-01-04T01:51:58.189Z,96703.6
2023-01-04T01:53:00.418Z,96705.1
2023-01-04T01:54:02.941Z,96710.9
2023-01-04T01:55:05.560Z,96711.2
2023-01-04T01:56:07.946Z,96709.6
2023-01-04T01:57:10.508Z,96709.4
2023-01-04T01:58:13.010Z,96711.9
2023-01-04T01:59:15.250Z,96709.4
2023-01-04T02:00:17.811Z,96714.5
2023-01-04T02:01:20.785Z,96717.7
2023-01-04T02:02:24.570Z,96721.1
2023-01-04T02:03:28.074Z,96723.4
2023-01-04T02:04:30.938Z,96719.8
2023-01-04T02:05:33.188Z,96716.4
2023-01-04T02:06:35.687Z,96720.8
2023-01-04T02:07:37.906Z,96721.5
2023-01-04T02:08:40.396Z,96715.2
2023-01-04T02:09:42.963Z,96721
2023-01-04T02:10:45.175Z,96711.7
2023-01-04T02:11:47.479Z,96712.8
2023-01-04T02:12:50.024Z,96705.2
2023-01-04T02:13:52.245Z,96704.7
2023-01-04T02:14:54.497Z,96700.3
2023-01-04T02:15:56.991Z,96705.2
2023-01-04T02:16:59.075Z,96699.9
2023-01-04T02:18:01.094Z,96707.2
2023-01-04T02:19:03.349Z,96708
2023-01-04T02:20:06.071Z,96709.4
2023-01-04T02:21:08.585Z,96704.9
2023-01-04T02:22:10.535Z,96706.7
2023-01-04T02:23:13.061Z,96703.4
2023-01-04T02:24:15.572Z,96701.3
2023-01-04T02:25:18.102Z,96694
2023-01-04T02:26:20.349Z,96696.4
2023-01-04T02:27:22.981Z,96693.6
2023-01-04T02:28:25.395Z,96693.9
2023-01-04T02:29:27.903Z,96687.1
2023-01-04T02:30:30.161Z,96684.1
2023-01-04T02:31:32.924Z,96684.1
2023-01-04T02:32:35.605Z,96684.1
2023-01-04T02:33:38.132Z,96678.2
2023-01-04T02:34:40.346Z,96678.5
2023-01-04T02:35:42.307Z,96678.6
2023-01-04T02:36:44.498Z,96675.6
2023-01-04T02:37:46.525Z,96676.7
2023-01-04T02:38:49.038Z,96680.2
2023-01-04T02:39:51.553Z,96682.3
2023-01-04T02:40:54.055Z,96686.6
2023-01-04T02:41:56.332Z,96682.8
2023-01-04T02:42:58.655Z,96687.8
2023-01-04T02:44:01.193Z,96684.1
2023-01-04T02:45:03.481Z,96687.3
2023-01-04T02:46:06.427Z,96688.4
2023-01-04T02:47:09.536Z,96685.8
2023-01-04T02:48:12.264Z,96692
2023-01-04T02:49:14.883Z,96686.9
2023-01-04T02:50:17.396Z,96687.1
2023-01-04T02:51:19.927Z,96683.8
2023-01-04T02:52:22.498Z,96687.7
2023-01-04T02:53:24.714Z,96685.5
2023-01-04T02:54:26.700Z,96674.3
2023-01-04T02:55:29.300Z,96680.8
2023-01-04T02:56:31.812Z,96670.7
2023-01-04T02:57:34.317Z,96670
2023-01-04T02:58:36.957Z,96666.5
2023-01-04T02:59:39.509Z,96662.3
2023-01-04T03:00:41.768Z,96659.6
2023-01-04T03:01:44.564Z,96659
2023-01-04T03:02:48.207Z,96659.2
2023-01-04T03:03:51.305Z,96658.6
2023-01-04T03:04:53.990Z,96658.5
2023-01-04T03:05:56.549Z,96656.4
2023-01-04T03:06:59.110Z,96657
2023-01-04T03:08:01.352Z,96651
2023-01-04T03:09:03.593Z,96648
2023-01-04T03:10:06.224Z,96649.2
2023-01-04T03:11:08.736Z,96648.8
2023-01-04T03:12:11.259Z,96656.2
2023-01-04T03:13:13.173Z,96650.2
2023-01-04T03:15:20.927Z,96651.4
2023-01-04T03:16:23.860Z,96651.3
2023-01-04T03:17:26.529Z,96649.4
2023-01-04T03:18:29.090Z,96653.9
2023-01-04T03:19:31.300Z,96655
2023-01-04T03:20:33.835Z,96653.8
2023-01-04T03:21:36.100Z,96654.8
2023-01-04T03:22:38.043Z,96654.2
2023-01-04T03:23:40.282Z,96657.6
2023-01-04T03:24:42.533Z,96658.1
2023-01-04T03:25:45.067Z,96658.6
2023-01-04T03:26:47.591Z,96662
2023-01-04T03:27:50.104Z,96655.5
2023-01-04T03:28:52.321Z,96653.7
2023-01-04T03:29:54.557Z,96655.3
2023-01-04T03:30:57.312Z,96657.1
2023-01-04T03:32:00.231Z,96651.8
2023-01-04T03:33:02.713Z,96649.7
2023-01-04T03:34:05.233Z,96654.4
2023-01-04T03:35:07.733Z,96647.1
2023-01-04T03:36:09.734Z,96650.3
2023-01-04T03:37:11.962Z,96651.1
2023-01-04T03:38:14.473Z,96648.6
2023-01-04T03:39:16.993Z,96651.5
2023-01-04T03:40:19.277Z,96650.8
2023-01-04T03:41:21.497Z,96645.7
2023-01-04T03:42:24.043Z,96647.5
2023-01-04T03:43:26.555Z,96647.4
2023-01-04T03:44:29.078Z,96647.4
2023-01-04T03:45:31.593Z,96651
2023-01-04T03:46:33.956Z,96650.1
2023-01-04T03:47:36.397Z,96650.3
2023-01-04T03:48:39.008Z,96649.3
2023-01-04T03:49:41.352Z,96642.5
2023-01-04T03:50:43.323Z,96642.6
2023-01-04T03:51:45.869Z,96640.9
2023-01-04T03:52:48.131Z,96638.6
2023-01-04T03:53:50.615Z,96634.9
2023-01-04T03:54:52.827Z,96633.2
2023-01-04T03:55:55.071Z,96626.1
2023-01-04T03:56:57.310Z,96630
2023-01-04T03:57:59.895Z,96627.2
2023-01-04T03:59:02.439Z,96626.4
2023-01-04T04:00:04.692Z,96621.8
2023-01-04T04:01:07.746Z,96619
2023-01-04T04:02:10.923Z,96616.8
2023-01-04T04:03:13.236Z,96620.3
2023-01-04T04:04:16.035Z,96616.3
2023-01-04T04:05:18.733Z,96613.6
2023-01-04T04:06:21.233Z,96613.3
2023-01-04T04:07:23.841Z,96613.2
2023-01-04T04:08:25.949Z,96610.3
2023-01-04T04:09:28.488Z,96614.8
2023-01-04T04:10:30.745Z,96615.1
2023-01-04T04:11:33.256Z,96618.3
2023-01-04T04:12:35.758Z,96615.4
2023-01-04T04:13:38.271Z,96618.3
2023-01-04T04:14:40.809Z,96621.5
2023-01-04T04:15:43.325Z,96612.7
2023-01-04T04:16:45.591Z,96617.8
2023-01-04T04:17:48.299Z,96614.8
2023-01-04T04:18:50.855Z,96616.6
2023-01-04T04:19:53.127Z,96619.4
2023-01-04T04:20:55.640Z,96614.7
2023-01-04T04:21:58.150Z,96615
2023-01-04T04:23:00.679Z,96616.8
2023-01-04T04:24:02.363Z,96610.6
2023-01-04T04:25:04.744Z,96609.7
2023-01-04T04:26:07.265Z,96612.7
2023-01-04T04:27:09.917Z,96610.4
2023-01-04T04:28:12.435Z,96613
2023-01-04T04:29:14.967Z,96613.3
2023-01-04T04:30:17.299Z,96609.4
2023-01-04T04:31:20.090Z,96609
2023-01-04T04:32:22.430Z,96609
2023-01-04T04:33:25.079Z,96603.3
2023-01-04T04:34:27.627Z,96601.4
2023-01-04T04:35:29.870Z,96603.9
2023-01-04T04:36:32.395Z,96602.7
2023-01-04T04:37:34.920Z,96596.5
2023-01-04T04:38:37.456Z,96593.7
2023-01-04T04:39:39.969Z,96592.7
2023-01-04T04:40:42.509Z,96583.5
2023-01-04T04:41:45.213Z,96592.4
2023-01-04T04:42:47.531Z,96587.8
2023-01-04T04:43:49.780Z,96588.3
2023-01-04T04:44:52.332Z,96580.1
2023-01-04T04:45:54.869Z,96589.3
2023-01-04T04:46:57.567Z,96586.9
2023-01-04T04:48:00.129Z,96586.1
2023-01-04T04:49:02.171Z,96581.4
2023-01-04T04:50:04.462Z,96583.3
2023-01-04T04:51:06.999Z,96581.9
2023-01-04T04:52:09.518Z,96579.1
2023-01-04T04:53:11.776Z,96573.1
2023-01-04T04:54:14.406Z,96574.4
2023-01-04T04:55:16.985Z,96572.3
2023-01-04T04:56:19.259Z,96572.3
2023-01-04T04:57:21.524Z,96569.3
2023-01-04T04:58:24.135Z,96570.5
2023-01-04T04:59:26.369Z,96570
2023-01-04T05:00:28.625Z,96566.8
2023-01-04T05:01:32.112Z,96568.3
2023-01-04T05:02:35.394Z,96569.3
2023-01-04T05:03:38.270Z,96570.1
2023-01-04T05:04:41.155Z,96570
2023-01-04T05:05:43.702Z,96572.8
2023-01-04T05:06:46.261Z,96574.9
2023-01-04T05:07:48.802Z,96571.9
2023-01-04T05:08:51.349Z,96565.4
2023-01-04T05:09:53.631Z,96574
2023-01-04T05:10:55.858Z,96569.7
2023-01-04T05:11:58.162Z,96575
2023-01-04T05:13:00.681Z,96572.9
2023-01-04T05:14:02.918Z,96574.1
2023-01-04T05:15:05.135Z,96577.2
2023-01-04T05:16:07.496Z,96573.1
2023-01-04T05:17:10.627Z,96577.9
2023-01-04T05:18:13.031Z,96570.5
2023-01-04T05:19:15.557Z,96569.3
2023-01-04T05:20:17.891Z,96575.6
2023-01-04T05:21:21.746Z,96573.7
2023-01-04T05:22:24.258Z,96571.7
2023-01-04T05:23:26.510Z,96572.5
2023-01-04T05:24:29.018Z,96572.2
2023-01-04T05:25:31.546Z,96572.8
2023-01-04T05:26:34.084Z,96578.5
2023-01-04T05:27:36.588Z,96576.4
2023-01-04T05:28:38.562Z,96578.3
2023-01-04T05:29:41.092Z,96575.2
2023-01-04T05:30:43.633Z,96576
2023-01-04T05:31:46.073Z,96573.5
2023-01-04T05:32:48.381Z,96571
2023-01-04T05:33:50.959Z,96575.9
2023-01-04T05:34:53.643Z,96577.3
2023-01-04T05:35:55.955Z,96578.2
2023-01-04T05:36:58.301Z,96579.9
2023-01-04T05:38:00.800Z,96582.2
2023-01-04T05:39:03.311Z,96577.6
2023-01-04T05:40:05.899Z,96579.1
2023-01-04T05:41:08.421Z,96582.5
2023-01-04T05:42:10.701Z,96579.9
2023-01-04T05:43:13.236Z,96572
2023-01-04T05:44:15.799Z,96576.9
2023-01-04T05:45:18.034Z,96577.6
2023-01-04T05:46:20.802Z,96575
2023-01-04T05:47:23.443Z,96582.4
2023-01-04T05:48:25.996Z,96586.9
2023-01-04T05:49:28.544Z,96587.3
2023-01-04T05:50:31.125Z,96580.8
2023-01-04T05:51:33.675Z,96586.6
2023-01-04T05:52:35.946Z,96587.3
2023-01-04T05:53:38.472Z,96585
2023-01-04T05:54:40.975Z,96586.6
2023-01-04T05:55:43.253Z,96587.8
2023-01-04T05:56:45.803Z,96582.6
2023-01-04T05:57:48.317Z,96581.7
2023-01-04T05:58:50.560Z,96585.2
2023-01-04T05:59:53.058Z,96584
2023-01-04T06:00:55.317Z,96586.8
2023-01-04T06:01:58.471Z,96589.4
2023-01-04T06:03:02.091Z,96589.1
2023-01-04T06:04:04.854Z,96590.8
2023-01-04T06:05:07.514Z,96594.7
2023-01-04T06:06:09.735Z,96596.5
2023-01-04T06:07:12.589Z,96598.1
2023-01-04T06:08:15.159Z,96598
2023-01-04T06:09:17.689Z,96594.7
2023-01-04T06:10:19.919Z,96598
2023-01-04T06:12:27.185Z,96594.8
2023-01-04T06:13:29.433Z,96598.2
2023-01-04T06:14:31.945Z,96594.4
2023-01-04T06:16:39.381Z,96591.4
2023-01-04T06:17:41.760Z,96597
2023-01-04T06:18:44.297Z,96599.3
2023-01-04T06:19:46.839Z,96590.5
2023-01-04T06:20:49.101Z,96592.2
2023-01-04T06:21:51.067Z,96592.7
2023-01-04T06:22:53.931Z,96596.3
2023-01-04T06:23:56.205Z,96591.4
2023-01-04T06:24:58.716Z,96593.6
2023-01-04T06:26:01.227Z,96593.1
2023-01-04T06:27:03.755Z,96594.4
2023-01-04T06:28:06.075Z,96597.5
2023-01-04T06:29:08.583Z,96596.5
2023-01-04T06:30:10.823Z,96594.6
2023-01-04T06:31:13.112Z,96596.7
2023-01-04T06:32:15.779Z,96593.1
2023-01-04T06:33:18.285Z,96595.4
2023-01-04T06:35:27.739Z,96588.1
2023-01-04T06:36:30.237Z,96586.8
2023-01-04T06:37:32.967Z,96587.9
2023-01-04T06:38:35.563Z,96580.6
2023-01-04T06:39:38.125Z,96580.6
2023-01-04T06:40:40.093Z,96582.8
2023-01-04T06:41:42.320Z,96584
2023-01-04T06:42:44.839Z,96582
2023-01-04T06:43:47.125Z,96580.4
2023-01-04T06:44:49.624Z,96577
2023-01-04T06:45:52.139Z,96576.2
2023-01-04T06:46:54.824Z,96575.1
2023-01-04T06:47:57.074Z,96577
2023-01-04T06:48:59.310Z,96576.5
2023-01-04T06:50:01.588Z,96573.9
2023-01-04T06:51:04.183Z,96573.9
2023-01-04T06:52:06.425Z,96574.7
2023-01-04T06:53:08.662Z,96572.1
2023-01-04T06:54:11.237Z,96569.1
2023-01-04T06:55:13.557Z,96570.8
2023-01-04T06:56:15.799Z,96570.9
2023-01-04T06:57:18.050Z,96572.9
2023-01-04T06:58:20.567Z,96569.8
2023-01-04T06:59:23.101Z,96569
2023-01-04T07:00:25.659Z,96564.8
2023-01-04T07:01:28.859Z,96560.6
2023-01-04T07:02:32.100Z,96559.6
2023-01-04T07:03:34.326Z,96554.5
2023-01-04T07:04:37.179Z,96554.2
2023-01-04T07:05:39.472Z,96553.3
2023-01-04T07:06:41.710Z,96551.4
2023-01-04T07:07:44.210Z,96557.4
2023-01-04T07:08:46.762Z,96555.1
2023-01-04T07:09:49.364Z,96558
2023-01-04T07:10:51.913Z,96559.5
2023-01-04T07:11:54.425Z,96560.3
2023-01-04T07:12:56.970Z,96555.5
2023-01-04T07:13:59.231Z,96557.4
2023-01-04T07:15:01.314Z,96555.9
2023-01-04T07:16:04.125Z,96555
2023-01-04T07:17:06.491Z,96554.7
2023-01-04T07:18:08.478Z,96552.7
2023-01-04T07:19:11.106Z,96554.8
2023-01-04T07:20:13.667Z,96558.3
2023-01-04T07:21:15.988Z,96558
2023-01-04T07:22:18.261Z,96554.1
2023-01-04T07:23:20.787Z,96555.3
2023-01-04T07:25:28.362Z,96554.8
2023-01-04T07:26:30.672Z,96555.5
2023-01-04T07:27:32.931Z,96552.5
2023-01-04T07:28:35.493Z,96553.5
2023-01-04T07:29:38.055Z,96553.6
2023-01-04T07:30:40.504Z,96554.1
2023-01-04T07:31:42.538Z,96555.6
2023-01-04T07:32:45.030Z,96559.1
2023-01-04T07:33:47.532Z,96556.8
2023-01-04T07:34:50.035Z,96557
2023-01-04T07:35:52.271Z,96563.7
2023-01-04T07:36:54.852Z,96562.3
2023-01-04T07:39:02.404Z,96561.2
2023-01-04T07:40:04.683Z,96559.1
2023-01-04T07:41:07.288Z,96559.1
2023-01-04T07:42:09.937Z,96557.1
2023-01-04T07:43:12.172Z,96558.1
2023-01-04T07:44:14.427Z,96553.6
2023-01-04T07:45:16.985Z,96549
2023-01-04T07:46:19.903Z,96552
2023-01-04T07:47:22.520Z,96543.6
2023-01-04T07:48:25.339Z,96547.1
2023-01-04T07:49:27.872Z,96550.2
2023-01-04T07:50:30.534Z,96550.2
2023-01-04T07:51:32.501Z,96546.7
2023-01-04T07:52:35.101Z,96545.8
2023-01-04T07:53:37.417Z,96546.1
2023-01-04T07:54:39.651Z,96543.2
2023-01-04T07:55:41.941Z,96540.8
2023-01-04T07:56:44.609Z,96538.2
2023-01-04T07:57:47.198Z,96534.8
2023-01-04T07:58:49.718Z,96541.6
2023-01-04T07:59:51.685Z,96533.5
2023-01-04T08:00:54.211Z,96530.6
2023-01-04T08:01:57.508Z,96531.6
2023-01-04T08:03:00.669Z,96532.5
2023-01-04T08:04:03.626Z,96533.4
2023-01-04T08:05:06.358Z,96529.9
2023-01-04T08:06:08.846Z,96525.3
2023-01-04T08:07:11.376Z,96525.4
2023-01-04T08:08:13.318Z,96527.7
2023-01-04T08:09:15.569Z,96526.4
2023-01-04T08:10:18.140Z,96525.8
2023-01-04T08:11:20.089Z,96523.5
2023-01-04T08:12:22.751Z,96526.1
2023-01-04T08:13:25.289Z,96524.5
2023-01-04T08:14:27.817Z,96525.5
2023-01-04T08:15:30.609Z,96528.6
2023-01-04T08:16:33.629Z,96530.7
2023-01-04T08:17:36.471Z,96531.3
2023-01-04T08:18:39.007Z,96533.1
2023-01-04T08:19:41.307Z,96528.3
2023-01-04T08:20:43.577Z,96529.9
2023-01-04T08:21:46.084Z,96526.1
2023-01-04T08:22:48.607Z,96527.8
2023-01-04T08:23:51.127Z,96527.7
2023-01-04T08:24:53.407Z,96528.5
2023-01-04T08:25:55.662Z,96527.2
2023-01-04T08:26:57.917Z,96530.7
2023-01-04T08:28:00.588Z,96526.4
2023-01-04T08:29:03.180Z,96527.8
2023-01-04T08:30:05.445Z,96529
2023-01-04T08:31:08.187Z,96525.8
2023-01-04T08:32:10.843Z,96528
2023-01-04T08:33:13.478Z,96533.6
2023-01-04T08:34:15.763Z,96525.9
2023-01-04T08:35:18.262Z,96528.5
2023-01-04T08:37:25.492Z,96525.5
2023-01-04T08:39:32.977Z,96528.7
2023-01-04T08:42:45.508Z,96523.9
2023-01-04T08:43:48.194Z,96530.6
2023-01-04T08:45:56.141Z,96522.7
2023-01-04T08:46:59.267Z,96520.8
2023-01-04T08:48:01.716Z,96527.7
2023-01-04T08:49:04.279Z,96530.7
2023-01-04T08:51:11.778Z,96528.5
2023-01-04T08:52:14.299Z,96529.2
2023-01-04T08:53:16.896Z,96527.2
2023-01-04T08:54:18.912Z,96525.4
2023-01-04T08:56:26.182Z,96524.3
2023-01-04T08:57:28.759Z,96525.7
2023-01-04T08:58:31.057Z,96523.6
2023-01-04T08:59:33.672Z,96519.1
2023-01-04T09:00:36.027Z,96525.7
2023-01-04T09:01:39.269Z,96519.5
2023-01-04T09:02:42.981Z,96520.4
2023-01-04T09:03:45.487Z,96512.6
2023-01-04T09:04:48.445Z,96514.1
2023-01-04T09:05:50.512Z,96517.4
2023-01-04T09:06:53.058Z,96511.5
2023-01-04T09:07:55.625Z,96508
2023-01-04T09:08:57.921Z,96510.2
2023-01-04T09:10:00.452Z,96509.2
2023-01-04T09:11:03.204Z,96509.3
2023-01-04T09:12:05.812Z,96507.8
2023-01-04T09:13:07.886Z,96502.3
2023-01-04T09:14:11.106Z,96506
2023-01-04T09:15:13.118Z,96502.3
2023-01-04T09:16:15.899Z,96498.4
2023-01-04T09:17:18.514Z,96502.7
2023-01-04T09:19:26.056Z,96499
2023-01-04T09:20:28.635Z,96494.3
2023-01-04T09:21:31.655Z,96496.6
2023-01-04T09:22:34.209Z,96498.6
2023-01-04T09:23:36.390Z,96495.9
2023-01-04T09:24:38.967Z,96502
2023-01-04T09:25:41.488Z,96501.8
2023-01-04T09:26:43.728Z,96502
2023-01-04T09:27:45.443Z,96508.4
2023-01-04T09:28:47.741Z,96504.3
2023-01-04T09:29:49.987Z,96507.3
2023-01-04T09:30:52.029Z,96505.1
2023-01-04T09:31:55.153Z,96502.6
2023-01-04T09:32:57.206Z,96503.1
2023-01-04T09:35:04.738Z,96502.2
2023-01-04T09:36:07.301Z,96509.3
2023-01-04T09:37:09.258Z,96508.6
2023-01-04T09:38:11.811Z,96505
2023-01-04T09:40:18.796Z,96507
2023-01-04T09:41:21.373Z,96513.3
2023-01-04T09:42:23.620Z,96512.2
2023-01-04T09:43:26.183Z,96512
2023-01-04T09:45:33.445Z,96511.1
2023-01-04T09:46:36.148Z,96506.7
2023-01-04T09:47:38.915Z,96508.5
2023-01-04T09:48:41.626Z,96504
2023-01-04T09:49:43.596Z,96504.9
2023-01-04T09:50:45.322Z,96503.2
2023-01-04T09:51:47.645Z,96500.2
2023-01-04T09:52:49.942Z,96497.8
2023-01-04T09:53:52.226Z,96498.4
2023-01-04T09:55:59.441Z,96496.8
2023-01-04T09:57:02.056Z,96497.5
2023-01-04T09:58:04.579Z,96496.5
2023-01-04T09:59:06.871Z,96493.3
2023-01-04T10:00:09.393Z,96496.3
2023-01-04T10:01:12.440Z,96495
2023-01-04T10:02:16.491Z,96494.6
2023-01-04T10:03:19.886Z,96491.6
2023-01-04T10:04:23.006Z,96493.1
2023-01-04T10:05:25.539Z,96494.9
2023-01-04T10:06:27.836Z,96486.5
2023-01-04T10:07:30.381Z,96488.6
2023-01-04T10:08:32.667Z,96485.5
2023-01-04T10:09:34.946Z,96485.5
2023-01-04T10:10:37.194Z,96484
2023-01-04T10:11:39.726Z,96480
2023-01-04T10:12:42.275Z,96483.2
2023-01-04T10:13:44.844Z,96483.9
2023-01-04T10:14:47.103Z,96483.7
2023-01-04T10:15:49.315Z,96483.5
2023-01-04T10:21:44.310Z,96474.4
2023-01-04T10:22:46.783Z,96472.5
2023-01-04T10:23:49.292Z,96469.9
2023-01-04T10:24:51.513Z,96464.1
2023-01-04T10:25:54.086Z,96464.7
2023-01-04T10:26:56.706Z,96463.2
2023-01-04T10:27:59.267Z,96464.6
2023-01-04T10:29:01.506Z,96460.1
2023-01-04T10:30:03.749Z,96457.2
2023-01-04T10:32:11.525Z,96453.2
2023-01-04T10:33:13.891Z,96447.1
2023-01-04T10:35:21.440Z,96443.7
2023-01-04T10:36:23.545Z,96439.3
2023-01-04T10:37:26.155Z,96435.3
2023-01-04T10:38:28.456Z,96436.1
2023-01-04T10:40:35.962Z,96437.7
2023-01-04T10:41:37.911Z,96433.6
2023-01-04T10:42:40.176Z,96431.7
2023-01-04T10:44:47.703Z,96428.6
2023-01-04T10:45:50.234Z,96431.3
2023-01-04T10:46:53.030Z,96429.6
2023-01-04T10:47:55.365Z,96433.2
2023-01-04T10:48:57.895Z,96430.2
2023-01-04T10:50:00.426Z,96422.5
2023-01-04T10:52:08.004Z,96430.8
2023-01-04T10:53:10.624Z,96425.4
2023-01-04T10:54:12.945Z,96422.8
2023-01-04T10:55:15.230Z,96418.4
2023-01-04T10:57:22.714Z,96416.6
2023-01-04T10:58:25.269Z,96415.9
2023-01-04T10:59:27.806Z,96410.5
2023-01-04T11:00:30.249Z,96407.4
2023-01-04T11:01:33.753Z,96408.7
2023-01-04T11:02:37.041Z,96406.1
2023-01-04T11:03:39.533Z,96403.9
2023-01-04T11:04:42.051Z,96406.6
2023-01-04T11:05:44.314Z,96403.8
2023-01-04T11:06:46.290Z,96396.8
2023-01-04T11:07:48.297Z,96399.8
2023-01-04T11:08:50.897Z,96388.8
2023-01-04T11:09:53.215Z,96393.7
2023-01-04T11:10:55.462Z,96383.1
2023-01-04T11:11:58.000Z,96387.1
2023-01-04T11:13:00.555Z,96385.8
2023-01-04T11:14:02.832Z,96384.3
2023-01-04T11:15:05.359Z,96391
2023-01-04T11:16:08.176Z,96386.2
2023-01-04T11:17:10.840Z,96386
2023-01-04T11:18:13.090Z,96392
2023-01-04T11:19:15.602Z,96386.9
2023-01-04T11:20:17.880Z,96387.9
2023-01-04T11:21:20.137Z,96375.5
2023-01-04T11:22:22.513Z,96374.2
2023-01-04T11:23:24.655Z,96376.6
2023-01-04T11:26:37.359Z,96374.4
2023-01-04T11:27:40.087Z,96371.1
2023-01-04T11:28:42.656Z,96373.2
2023-01-04T11:29:44.652Z,96371.8
2023-01-04T11:30:46.888Z,96367.8
2023-01-04T11:31:49.559Z,96369.6
2023-01-04T11:32:51.948Z,96354.6
2023-01-04T11:33:54.510Z,96362.6
2023-01-04T11:34:57.116Z,96358.9
2023-01-04T11:35:59.477Z,96366.7
2023-01-04T11:37:02.121Z,96365.4
2023-01-04T11:38:04.355Z,96362.4
2023-01-04T11:39:06.914Z,96363.4
2023-01-04T11:40:09.147Z,96363.2
2023-01-04T11:41:11.730Z,96362.3
2023-01-04T11:42:14.032Z,96356
2023-01-04T11:43:16.572Z,96360.8
2023-01-04T11:44:18.845Z,96355
2023-01-04T11:45:20.851Z,96349
2023-01-04T11:46:23.244Z,96349
2023-01-04T11:48:30.577Z,96341.3
2023-01-04T11:49:32.834Z,96348
2023-01-04T11:50:35.065Z,96350.4
2023-01-04T11:51:37.303Z,96345.7
2023-01-04T11:52:39.848Z,96344.1
2023-01-04T11:53:42.199Z,96337.3
2023-01-04T11:54:44.527Z,96337
2023-01-04T11:55:47.050Z,96331
2023-01-04T11:56:49.317Z,96329.4
2023-01-04T11:57:51.913Z,96333.6
2023-01-04T11:58:54.199Z,96330.7
2023-01-04T11:59:56.725Z,96331.7
2023-01-04T12:00:58.732Z,96325.4
2023-01-04T12:02:01.963Z,96327.3
2023-01-04T12:03:05.240Z,96321.7
2023-01-04T12:04:07.704Z,96322
2023-01-04T12:05:10.211Z,96319.4
2023-01-04T12:06:12.711Z,96315.5
2023-01-04T12:07:15.199Z,96316.5
2023-01-04T12:08:17.918Z,96320.3
2023-01-04T12:09:20.163Z,96316.1
2023-01-04T12:10:22.705Z,96317.8
2023-01-04T12:11:25.013Z,96314.6
2023-01-04T12:12:27.546Z,96316.4
2023-01-04T12:13:30.152Z,96314.2
2023-01-04T12:14:32.453Z,96314.6
2023-01-04T12:15:34.992Z,96312.4
2023-01-04T12:16:36.969Z,96309.2
2023-01-04T12:18:44.228Z,96295.9
2023-01-04T12:19:46.491Z,96299.4
2023-01-04T12:20:48.739Z,96296.7
2023-01-04T12:21:51.278Z,96293.4
2023-01-04T12:22:53.801Z,96293.8
2023-01-04T12:23:56.338Z,96298.6
2023-01-04T12:26:03.608Z,96288.8
2023-01-04T12:27:05.852Z,96289.9
2023-01-04T12:28:08.145Z,96288.1
2023-01-04T12:29:10.489Z,96291.1
2023-01-04T12:30:13.071Z,96296.6
2023-01-04T12:32:20.397Z,96291.5
2023-01-04T12:33:22.661Z,96288
2023-01-04T12:34:25.192Z,96287.9
2023-01-04T12:35:27.442Z,96285.2
2023-01-04T12:36:29.951Z,96279.4
2023-01-04T12:37:32.476Z,96281.8
2023-01-04T12:38:34.997Z,96279.8
2023-01-04T12:39:37.244Z,96283.5
2023-01-04T12:40:39.761Z,96276
2023-01-04T12:41:41.741Z,96270.2
2023-01-04T12:42:43.995Z,96268.6
2023-01-04T12:43:48.718Z,96268.8
2023-01-04T12:44:51.290Z,96268.9
2023-01-04T12:45:54.295Z,96275
2023-01-04T12:46:56.843Z,96271.5
2023-01-04T12:47:58.518Z,96268.3
2023-01-04T12:49:01.072Z,96264.6
2023-01-04T12:50:02.775Z,96258.6
2023-01-04T12:53:34.470Z,96254.6
2023-01-04T12:54:36.691Z,96251.4
2023-01-04T12:56:43.980Z,96244.7
2023-01-04T12:57:46.495Z,96245.6
2023-01-04T12:59:54.085Z,96240.4
2023-01-04T13:00:56.685Z,96239
2023-01-04T13:01:59.789Z,96245
2023-01-04T13:03:03.563Z,96249.4
2023-01-04T13:04:07.683Z,96246.5
2023-01-04T13:06:15.278Z,96251.6
2023-01-04T13:07:17.856Z,96248.6
2023-01-04T13:08:20.117Z,96249
2023-01-04T13:10:27.645Z,96250.9
2023-01-04T13:11:30.200Z,96244.1
2023-01-04T13:12:32.701Z,96252
2023-01-04T13:13:34.959Z,96244.9
2023-01-04T13:14:37.244Z,96237.7
2023-01-04T13:15:39.948Z,96248.9
2023-01-04T13:16:42.803Z,96247.3
2023-01-04T13:17:44.808Z,96246.9
2023-01-04T13:18:47.077Z,96247.9
2023-01-04T13:19:49.669Z,96248
2023-01-04T13:20:52.174Z,96250
2023-01-04T13:21:54.137Z,96252.2
2023-01-04T13:22:56.361Z,96257.2
2023-01-04T13:23:58.883Z,96255.8
2023-01-04T13:25:01.668Z,96253.3
2023-01-04T13:26:03.610Z,96248.2
2023-01-04T13:27:06.154Z,96242.4
2023-01-04T13:29:13.636Z,96239.9